KTRM

Details ICAO KTRM (TRM)
Name Jacqueline Cochran Rgnl
Region United States
Timezone America/Los_Angeles (UTC-8.0)
Plans Departing 12
Arriving 41
Stats Elevation -115 ft / -35 m (AMSL)
Location 33.626391° -116.160792°
Runways 2
Magnetic Variation 11.462° E
Sunrise 2017-12-18 14:45:08 UTC / 2017-12-18 06:45:08 Local
Sunset 2017-12-19 00:40:24 UTC / 2017-12-18 16:40:24 Local
Advertisement - Login to hide

Runways

ID Width Length Bearing (true) Bearing (mag) Surface Threshold Offset Overrun Length
12 98 ft / 30 m 4,997 ft / 1,523 m 135.14° 123.68° Asphalt 0 ft / 0 m 0 ft / 0 m
17 151 ft / 46 m 8,525 ft / 2,598 m 180.02° 168.56° Asphalt 0 ft / 0 m 200 ft / 61 m
30 98 ft / 30 m 4,997 ft / 1,523 m 315.15° 303.69° Asphalt 0 ft / 0 m 0 ft / 0 m
35 151 ft / 46 m 8,525 ft / 2,598 m 0.02° 348.56° Asphalt 0 ft / 0 m 200 ft / 61 m

Map

Weather


0- 5 10 15 20 25 30 35+ Temperature / ° C

Clouds and Precipitation
Forecast for 2017-12-18 12:00 UTC. Updated 2 hours ago

Ground ~20,000 ft ~40,000 ft Winds

METAR

KTRM 180952Z AUTO 36006KT 10SM CLR 10/M07 A3008 RMK AO2 SLP186 T01001067

TAF

TAF KTRM 180520Z 1806/1906 VRB06KT P6SM SKC

Frequencies

Recorded 118.32 MHz ASOS
Approach 135.27 MHz SOCAL APP/DEP
Unicom 123.00 MHz CTAF/UNICOM
Warning: Do not use this data for real-world aviation or navigation. No guarantee of current accuracy is given.